Terminal Aerodrome Forecast
Issued by NWS

Home | Current Version | Previous Version | Text Only | Print | Product List | Glossary On
Versions: 1 2 3 4 5 6 7 8 9 10 11 12 13
000
FTUS45 KMSO 251133
TAFSMN
TAF
KSMN 251133Z 2512/2612 VRB04KT P6SM BKN100
     FM252000 35006KT P6SM VCSH OVC050
     FM260400 34010KT 6SM -RA BR OVC020
      AMD LTD TO CLD VIS AND WIND=

USA.gov is the U.S. government's official web portal to all federal, state and local government web resources and services.